EDHI/XFW METAR and TAF weather

Enter ICAO airport designator
Station Type Date Time Source
EDHI METAR 2023/02/05 14:50 UTC NOAA

EDHI 051450Z AUTO VRB02KT 9999 // FEW014/// BKN021/// OVC027/// 02/M01 Q1036


Station Type Date Time Source
EDHI Decoded METAR 2023/02/05 14:50 UTC NOAA

Hamburg-Finkenwerder, Germany (EDHI) 53-32N 009-50E 13M
Feb 05, 2023 - 09:50 AM EST / 2023.02.05 1450 UTC
Wind: Variable at 2 MPH (2 KT):0
Visibility: greater than 7 mile(s):0
Sky conditions: overcast
Temperature: 35 F (2 C)
Dew Point: 30 F (-1 C)
Relative Humidity: 80%
Pressure (altimeter): 30.59 in. Hg (1036 hPa)
ob: EDHI 051450Z AUTO VRB02KT 9999 // FEW014/// BKN021/// OVC027/// 02/M01 Q1036
cycle: 15

Station Type Date Time Source
EDHI TAF 2010/02/22 14:20 UTC NOAA

METAR EDHI 221420Z 17005KT 9999 BKN030 05/02 Q0989

Example: see airport list